sensor_id;sensor_type;location;lat;lon;timestamp;P1;durP1;ratioP1;P2;durP2;ratioP2
65825;SDS011;52586;-43.152;172.732;2023-03-20T00:01:20;1.58;;;0.55;;
65825;SDS011;52586;-43.152;172.732;2023-03-20T00:03:53;0.93;;;0.68;;
65825;SDS011;52586;-43.152;172.732;2023-03-20T00:06:25;0.88;;;0.60;;
65825;SDS011;52586;-43.152;172.732;2023-03-20T00:08:56;0.85;;;0.40;;
65825;SDS011;52586;-43.152;172.732;2023-03-20T00:11:28;0.70;;;0.30;;
65825;SDS011;52586;-43.152;172.732;2023-03-20T00:14:00;0.77;;;0.50;;
65825;SDS011;52586;-43.152;172.732;2023-03-20T00:16:33;1.35;;;0.70;;
65825;SDS011;52586;-43.152;172.732;2023-03-20T00:19:09;1.27;;;0.75;;
65825;SDS011;52586;-43.152;172.732;2023-03-20T00:21:42;1.27;;;0.50;;
65825;SDS011;52586;-43.152;172.732;2023-03-20T00:24:13;0.90;;;0.55;;
65825;SDS011;52586;-43.152;172.732;2023-03-20T00:26:45;1.38;;;0.63;;
65825;SDS011;52586;-43.152;172.732;2023-03-20T00:29:19;0.93;;;0.60;;
65825;SDS011;52586;-43.152;172.732;2023-03-20T00:31:51;1.08;;;0.50;;
65825;SDS011;52586;-43.152;172.732;2023-03-20T00:34:25;1.02;;;0.50;;
65825;SDS011;52586;-43.152;172.732;2023-03-20T00:36:56;2.15;;;0.70;;
65825;SDS011;52586;-43.152;172.732;2023-03-20T00:39:27;0.88;;;0.40;;
65825;SDS011;52586;-43.152;172.732;2023-03-20T00:41:59;0.50;;;0.50;;
65825;SDS011;52586;-43.152;172.732;2023-03-20T00:44:32;2.60;;;0.63;;
65825;SDS011;52586;-43.152;172.732;2023-03-20T00:47:05;2.60;;;0.70;;
65825;SDS011;52586;-43.152;172.732;2023-03-20T00:49:42;2.30;;;0.60;;
65825;SDS011;52586;-43.152;172.732;2023-03-20T00:52:15;2.38;;;0.60;;
65825;SDS011;52586;-43.152;172.732;2023-03-20T00:54:49;4.57;;;0.70;;
65825;SDS011;52586;-43.152;172.732;2023-03-20T00:57:21;1.27;;;0.65;;
65825;SDS011;52586;-43.152;172.732;2023-03-20T00:59:55;1.63;;;0.70;;
65825;SDS011;52586;-43.152;172.732;2023-03-20T01:02:30;1.17;;;0.52;;
65825;SDS011;52586;-43.152;172.732;2023-03-20T01:05:02;2.33;;;0.55;;
65825;SDS011;52586;-43.152;172.732;2023-03-20T01:07:34;1.50;;;0.52;;
65825;SDS011;52586;-43.152;172.732;2023-03-20T01:10:05;0.82;;;0.60;;
65825;SDS011;52586;-43.152;172.732;2023-03-20T01:12:37;1.77;;;0.68;;
65825;SDS011;52586;-43.152;172.732;2023-03-20T01:15:15;1.58;;;0.63;;
65825;SDS011;52586;-43.152;172.732;2023-03-20T01:17:48;3.03;;;0.80;;
65825;SDS011;52586;-43.152;172.732;2023-03-20T01:20:22;2.55;;;0.57;;
65825;SDS011;52586;-43.152;172.732;2023-03-20T01:22:54;1.98;;;0.70;;
65825;SDS011;52586;-43.152;172.732;2023-03-20T01:25:25;0.85;;;0.60;;
65825;SDS011;52586;-43.152;172.732;2023-03-20T01:27:56;0.40;;;0.40;;
65825;SDS011;52586;-43.152;172.732;2023-03-20T01:30:27;1.55;;;0.50;;
65825;SDS011;52586;-43.152;172.732;2023-03-20T01:32:59;1.42;;;0.75;;
65825;SDS011;52586;-43.152;172.732;2023-03-20T01:35:36;0.57;;;0.40;;
65825;SDS011;52586;-43.152;172.732;2023-03-20T01:38:10;0.77;;;0.40;;
65825;SDS011;52586;-43.152;172.732;2023-03-20T01:40:43;1.33;;;0.60;;
65825;SDS011;52586;-43.152;172.732;2023-03-20T01:43:19;0.45;;;0.40;;
65825;SDS011;52586;-43.152;172.732;2023-03-20T01:45:55;1.08;;;0.50;;
65825;SDS011;52586;-43.152;172.732;2023-03-20T01:48:31;0.95;;;0.40;;
65825;SDS011;52586;-43.152;172.732;2023-03-20T01:51:26;4.82;;;0.50;;
65825;SDS011;52586;-43.152;172.732;2023-03-20T01:53:58;1.40;;;0.60;;
65825;SDS011;52586;-43.152;172.732;2023-03-20T01:56:32;1.10;;;0.40;;
65825;SDS011;52586;-43.152;172.732;2023-03-20T01:59:07;1.80;;;0.50;;
65825;SDS011;52586;-43.152;172.732;2023-03-20T02:01:42;1.23;;;0.60;;
65825;SDS011;52586;-43.152;172.732;2023-03-20T02:04:13;0.73;;;0.45;;
65825;SDS011;52586;-43.152;172.732;2023-03-20T02:06:47;0.73;;;0.40;;
65825;SDS011;52586;-43.152;172.732;2023-03-20T02:09:18;1.33;;;0.52;;
65825;SDS011;52586;-43.152;172.732;2023-03-20T02:11:49;2.15;;;0.60;;
65825;SDS011;52586;-43.152;172.732;2023-03-20T02:14:21;0.82;;;0.50;;
65825;SDS011;52586;-43.152;172.732;2023-03-20T02:16:53;0.85;;;0.43;;
65825;SDS011;52586;-43.152;172.732;2023-03-20T02:19:25;2.15;;;0.63;;
65825;SDS011;52586;-43.152;172.732;2023-03-20T02:22:14;1.05;;;0.45;;
65825;SDS011;52586;-43.152;172.732;2023-03-20T02:25:12;0.77;;;0.50;;
65825;SDS011;52586;-43.152;172.732;2023-03-20T02:28:06;0.70;;;0.50;;
65825;SDS011;52586;-43.152;172.732;2023-03-20T02:31:06;1.05;;;0.70;;
65825;SDS011;52586;-43.152;172.732;2023-03-20T02:40:20;1.63;;;0.63;;
65825;SDS011;52586;-43.152;172.732;2023-03-20T02:43:00;0.70;;;0.52;;
65825;SDS011;52586;-43.152;172.732;2023-03-20T02:45:40;1.15;;;0.60;;
65825;SDS011;52586;-43.152;172.732;2023-03-20T02:48:19;0.60;;;0.50;;
65825;SDS011;52586;-43.152;172.732;2023-03-20T02:50:58;1.55;;;0.60;;
65825;SDS011;52586;-43.152;172.732;2023-03-20T02:53:36;0.65;;;0.50;;
65825;SDS011;52586;-43.152;172.732;2023-03-20T02:56:17;0.50;;;0.30;;
65825;SDS011;52586;-43.152;172.732;2023-03-20T02:58:58;2.17;;;0.52;;
65825;SDS011;52586;-43.152;172.732;2023-03-20T03:01:35;0.35;;;0.32;;
65825;SDS011;52586;-43.152;172.732;2023-03-20T03:04:10;1.42;;;0.52;;
65825;SDS011;52586;-43.152;172.732;2023-03-20T03:06:44;0.63;;;0.40;;
65825;SDS011;52586;-43.152;172.732;2023-03-20T03:09:23;1.13;;;0.65;;
65825;SDS011;52586;-43.152;172.732;2023-03-20T03:11:58;1.23;;;0.60;;
65825;SDS011;52586;-43.152;172.732;2023-03-20T03:14:35;0.60;;;0.50;;
65825;SDS011;52586;-43.152;172.732;2023-03-20T03:17:09;0.68;;;0.40;;
65825;SDS011;52586;-43.152;172.732;2023-03-20T03:19:41;1.30;;;0.60;;
65825;SDS011;52586;-43.152;172.732;2023-03-20T03:22:15;0.80;;;0.38;;
65825;SDS011;52586;-43.152;172.732;2023-03-20T03:24:48;0.63;;;0.40;;
65825;SDS011;52586;-43.152;172.732;2023-03-20T03:27:20;0.60;;;0.43;;
65825;SDS011;52586;-43.152;172.732;2023-03-20T03:29:54;0.77;;;0.50;;
65825;SDS011;52586;-43.152;172.732;2023-03-20T03:32:27;0.40;;;0.40;;
65825;SDS011;52586;-43.152;172.732;2023-03-20T03:35:01;1.15;;;0.50;;
65825;SDS011;52586;-43.152;172.732;2023-03-20T03:37:41;0.93;;;0.50;;
65825;SDS011;52586;-43.152;172.732;2023-03-20T03:40:26;0.50;;;0.32;;
65825;SDS011;52586;-43.152;172.732;2023-03-20T03:43:04;0.38;;;0.38;;
65825;SDS011;52586;-43.152;172.732;2023-03-20T03:45:40;0.80;;;0.50;;
65825;SDS011;52586;-43.152;172.732;2023-03-20T03:48:15;0.38;;;0.30;;
65825;SDS011;52586;-43.152;172.732;2023-03-20T03:50:48;0.75;;;0.50;;
65825;SDS011;52586;-43.152;172.732;2023-03-20T03:53:21;0.38;;;0.38;;
65825;SDS011;52586;-43.152;172.732;2023-03-20T03:55:57;1.30;;;0.70;;
65825;SDS011;52586;-43.152;172.732;2023-03-20T03:58:33;0.43;;;0.38;;
65825;SDS011;52586;-43.152;172.732;2023-03-20T04:01:06;1.67;;;0.50;;
65825;SDS011;52586;-43.152;172.732;2023-03-20T04:03:40;1.10;;;0.50;;
65825;SDS011;52586;-43.152;172.732;2023-03-20T04:06:14;1.63;;;0.60;;
65825;SDS011;52586;-43.152;172.732;2023-03-20T04:08:46;0.77;;;0.65;;
65825;SDS011;52586;-43.152;172.732;2023-03-20T04:11:19;2.45;;;0.80;;
65825;SDS011;52586;-43.152;172.732;2023-03-20T04:13:51;0.70;;;0.40;;
65825;SDS011;52586;-43.152;172.732;2023-03-20T04:16:23;2.08;;;0.70;;
65825;SDS011;52586;-43.152;172.732;2023-03-20T04:18:53;1.63;;;0.75;;
65825;SDS011;52586;-43.152;172.732;2023-03-20T04:21:24;1.70;;;0.88;;
65825;SDS011;52586;-43.152;172.732;2023-03-20T04:23:55;1.63;;;0.60;;
65825;SDS011;52586;-43.152;172.732;2023-03-20T04:26:27;1.48;;;0.55;;
65825;SDS011;52586;-43.152;172.732;2023-03-20T04:28:58;1.85;;;0.60;;
65825;SDS011;52586;-43.152;172.732;2023-03-20T04:31:29;1.55;;;0.75;;
65825;SDS011;52586;-43.152;172.732;2023-03-20T04:34:00;4.55;;;1.00;;
65825;SDS011;52586;-43.152;172.732;2023-03-20T04:36:31;1.70;;;0.70;;
65825;SDS011;52586;-43.152;172.732;2023-03-20T04:39:01;1.92;;;1.02;;
65825;SDS011;52586;-43.152;172.732;2023-03-20T04:41:34;1.40;;;0.68;;
65825;SDS011;52586;-43.152;172.732;2023-03-20T04:44:05;1.20;;;0.70;;
65825;SDS011;52586;-43.152;172.732;2023-03-20T04:46:35;1.50;;;0.88;;
65825;SDS011;52586;-43.152;172.732;2023-03-20T04:49:06;1.33;;;0.80;;
65825;SDS011;52586;-43.152;172.732;2023-03-20T04:51:37;0.65;;;0.60;;
65825;SDS011;52586;-43.152;172.732;2023-03-20T04:54:07;2.00;;;0.90;;
65825;SDS011;52586;-43.152;172.732;2023-03-20T04:56:40;2.42;;;0.98;;
65825;SDS011;52586;-43.152;172.732;2023-03-20T04:59:10;1.33;;;0.60;;
65825;SDS011;52586;-43.152;172.732;2023-03-20T05:01:41;2.55;;;0.82;;
65825;SDS011;52586;-43.152;172.732;2023-03-20T05:04:12;1.35;;;0.70;;
65825;SDS011;52586;-43.152;172.732;2023-03-20T05:06:43;1.02;;;0.75;;
65825;SDS011;52586;-43.152;172.732;2023-03-20T05:09:14;1.42;;;0.65;;
65825;SDS011;52586;-43.152;172.732;2023-03-20T05:11:47;1.67;;;0.70;;
65825;SDS011;52586;-43.152;172.732;2023-03-20T05:14:17;1.58;;;0.73;;
65825;SDS011;52586;-43.152;172.732;2023-03-20T05:16:48;2.20;;;0.80;;
65825;SDS011;52586;-43.152;172.732;2023-03-20T05:19:19;1.27;;;0.70;;
65825;SDS011;52586;-43.152;172.732;2023-03-20T05:21:49;1.52;;;0.70;;
65825;SDS011;52586;-43.152;172.732;2023-03-20T05:24:20;1.45;;;0.65;;
65825;SDS011;52586;-43.152;172.732;2023-03-20T05:26:53;2.03;;;0.77;;
65825;SDS011;52586;-43.152;172.732;2023-03-20T05:29:24;2.08;;;0.65;;
65825;SDS011;52586;-43.152;172.732;2023-03-20T05:31:54;1.27;;;0.70;;
65825;SDS011;52586;-43.152;172.732;2023-03-20T05:34:25;2.30;;;1.02;;
65825;SDS011;52586;-43.152;172.732;2023-03-20T05:36:56;1.67;;;0.60;;
65825;SDS011;52586;-43.152;172.732;2023-03-20T05:39:26;1.30;;;0.70;;
65825;SDS011;52586;-43.152;172.732;2023-03-20T05:41:59;1.02;;;0.60;;
65825;SDS011;52586;-43.152;172.732;2023-03-20T05:44:29;1.40;;;0.77;;
65825;SDS011;52586;-43.152;172.732;2023-03-20T05:47:00;1.40;;;0.70;;
65825;SDS011;52586;-43.152;172.732;2023-03-20T05:49:31;1.27;;;0.50;;
65825;SDS011;52586;-43.152;172.732;2023-03-20T05:52:01;1.48;;;0.65;;
65825;SDS011;52586;-43.152;172.732;2023-03-20T05:54:32;0.65;;;0.60;;
65825;SDS011;52586;-43.152;172.732;2023-03-20T05:57:05;3.80;;;1.48;;
65825;SDS011;52586;-43.152;172.732;2023-03-20T05:59:35;3.05;;;1.45;;
65825;SDS011;52586;-43.152;172.732;2023-03-20T06:02:06;3.63;;;1.58;;
65825;SDS011;52586;-43.152;172.732;2023-03-20T06:04:37;4.30;;;2.05;;
65825;SDS011;52586;-43.152;172.732;2023-03-20T06:07:07;5.00;;;2.00;;
65825;SDS011;52586;-43.152;172.732;2023-03-20T06:09:38;4.22;;;1.60;;
65825;SDS011;52586;-43.152;172.732;2023-03-20T06:12:10;4.32;;;1.83;;
65825;SDS011;52586;-43.152;172.732;2023-03-20T06:14:41;3.72;;;2.03;;
65825;SDS011;52586;-43.152;172.732;2023-03-20T06:17:12;5.07;;;1.40;;
65825;SDS011;52586;-43.152;172.732;2023-03-20T06:19:43;5.05;;;1.98;;
65825;SDS011;52586;-43.152;172.732;2023-03-20T06:22:13;3.45;;;1.75;;
65825;SDS011;52586;-43.152;172.732;2023-03-20T06:24:44;4.00;;;1.38;;
65825;SDS011;52586;-43.152;172.732;2023-03-20T06:27:16;3.42;;;1.73;;
65825;SDS011;52586;-43.152;172.732;2023-03-20T06:29:47;4.38;;;1.67;;
65825;SDS011;52586;-43.152;172.732;2023-03-20T06:32:18;4.00;;;1.63;;
65825;SDS011;52586;-43.152;172.732;2023-03-20T06:34:49;5.85;;;1.90;;
65825;SDS011;52586;-43.152;172.732;2023-03-20T06:37:19;3.38;;;1.55;;
65825;SDS011;52586;-43.152;172.732;2023-03-20T06:39:50;6.07;;;2.05;;
65825;SDS011;52586;-43.152;172.732;2023-03-20T06:42:23;5.50;;;1.80;;
65825;SDS011;52586;-43.152;172.732;2023-03-20T06:44:53;3.95;;;2.10;;
65825;SDS011;52586;-43.152;172.732;2023-03-20T06:47:24;3.55;;;1.88;;
65825;SDS011;52586;-43.152;172.732;2023-03-20T06:49:55;4.28;;;1.70;;
65825;SDS011;52586;-43.152;172.732;2023-03-20T06:52:25;2.25;;;1.35;;
65825;SDS011;52586;-43.152;172.732;2023-03-20T06:54:56;3.83;;;1.70;;
65825;SDS011;52586;-43.152;172.732;2023-03-20T06:57:28;4.63;;;1.67;;
65825;SDS011;52586;-43.152;172.732;2023-03-20T06:59:59;2.28;;;1.70;;
65825;SDS011;52586;-43.152;172.732;2023-03-20T07:02:30;3.28;;;1.73;;
65825;SDS011;52586;-43.152;172.732;2023-03-20T07:05:01;4.95;;;1.80;;
65825;SDS011;52586;-43.152;172.732;2023-03-20T07:07:32;3.97;;;1.70;;
65825;SDS011;52586;-43.152;172.732;2023-03-20T07:10:03;4.20;;;1.60;;
65825;SDS011;52586;-43.152;172.732;2023-03-20T07:12:40;4.65;;;2.08;;
65825;SDS011;52586;-43.152;172.732;2023-03-20T07:15:11;4.13;;;1.67;;
65825;SDS011;52586;-43.152;172.732;2023-03-20T07:17:41;3.25;;;1.55;;
65825;SDS011;52586;-43.152;172.732;2023-03-20T07:20:12;4.82;;;1.90;;
65825;SDS011;52586;-43.152;172.732;2023-03-20T07:22:43;4.30;;;1.52;;
65825;SDS011;52586;-43.152;172.732;2023-03-20T07:25:15;2.53;;;1.35;;
65825;SDS011;52586;-43.152;172.732;2023-03-20T07:27:48;3.38;;;1.58;;
65825;SDS011;52586;-43.152;172.732;2023-03-20T07:30:19;4.45;;;1.52;;
65825;SDS011;52586;-43.152;172.732;2023-03-20T07:32:50;4.10;;;1.80;;
65825;SDS011;52586;-43.152;172.732;2023-03-20T07:35:20;4.25;;;1.23;;
65825;SDS011;52586;-43.152;172.732;2023-03-20T07:37:51;2.55;;;1.42;;
65825;SDS011;52586;-43.152;172.732;2023-03-20T07:40:22;3.60;;;1.50;;
65825;SDS011;52586;-43.152;172.732;2023-03-20T07:42:55;4.63;;;1.63;;
65825;SDS011;52586;-43.152;172.732;2023-03-20T07:45:26;2.35;;;1.45;;
65825;SDS011;52586;-43.152;172.732;2023-03-20T07:47:57;3.83;;;1.42;;
65825;SDS011;52586;-43.152;172.732;2023-03-20T07:50:28;4.63;;;1.60;;
65825;SDS011;52586;-43.152;172.732;2023-03-20T07:52:59;4.05;;;1.55;;
65825;SDS011;52586;-43.152;172.732;2023-03-20T07:55:29;3.13;;;1.50;;
65825;SDS011;52586;-43.152;172.732;2023-03-20T07:58:02;4.45;;;1.48;;
65825;SDS011;52586;-43.152;172.732;2023-03-20T08:00:33;4.43;;;1.30;;
65825;SDS011;52586;-43.152;172.732;2023-03-20T08:03:04;3.78;;;1.30;;
65825;SDS011;52586;-43.152;172.732;2023-03-20T08:05:34;7.65;;;1.73;;
65825;SDS011;52586;-43.152;172.732;2023-03-20T08:08:05;4.20;;;1.50;;
65825;SDS011;52586;-43.152;172.732;2023-03-20T08:10:36;4.22;;;1.42;;
65825;SDS011;52586;-43.152;172.732;2023-03-20T08:13:08;3.03;;;1.60;;
65825;SDS011;52586;-43.152;172.732;2023-03-20T08:15:39;3.30;;;1.20;;
65825;SDS011;52586;-43.152;172.732;2023-03-20T08:18:10;2.58;;;1.30;;
65825;SDS011;52586;-43.152;172.732;2023-03-20T08:20:40;3.58;;;1.23;;
65825;SDS011;52586;-43.152;172.732;2023-03-20T08:23:11;3.45;;;1.58;;
65825;SDS011;52586;-43.152;172.732;2023-03-20T08:25:46;6.35;;;1.38;;
65825;SDS011;52586;-43.152;172.732;2023-03-20T08:28:19;2.42;;;1.10;;
65825;SDS011;52586;-43.152;172.732;2023-03-20T08:30:50;3.95;;;1.40;;
65825;SDS011;52586;-43.152;172.732;2023-03-20T08:33:21;1.25;;;1.10;;
65825;SDS011;52586;-43.152;172.732;2023-03-20T08:35:54;1.85;;;1.02;;
65825;SDS011;52586;-43.152;172.732;2023-03-20T08:38:25;1.77;;;1.10;;
65825;SDS011;52586;-43.152;172.732;2023-03-20T08:40:56;2.72;;;1.15;;
65825;SDS011;52586;-43.152;172.732;2023-03-20T08:43:28;2.75;;;1.05;;
65825;SDS011;52586;-43.152;172.732;2023-03-20T08:45:59;2.47;;;1.10;;
65825;SDS011;52586;-43.152;172.732;2023-03-20T08:48:30;2.17;;;1.02;;
65825;SDS011;52586;-43.152;172.732;2023-03-20T08:51:01;3.08;;;1.08;;
65825;SDS011;52586;-43.152;172.732;2023-03-20T08:53:32;2.95;;;1.00;;
65825;SDS011;52586;-43.152;172.732;2023-03-20T08:56:03;2.05;;;0.98;;
65825;SDS011;52586;-43.152;172.732;2023-03-20T08:58:36;2.58;;;0.98;;
65825;SDS011;52586;-43.152;172.732;2023-03-20T09:01:07;2.25;;;0.90;;
65825;SDS011;52586;-43.152;172.732;2023-03-20T09:03:40;1.67;;;0.80;;
65825;SDS011;52586;-43.152;172.732;2023-03-20T09:06:11;1.50;;;0.90;;
65825;SDS011;52586;-43.152;172.732;2023-03-20T09:08:42;2.25;;;1.10;;
65825;SDS011;52586;-43.152;172.732;2023-03-20T09:11:12;1.08;;;0.73;;
65825;SDS011;52586;-43.152;172.732;2023-03-20T09:13:45;2.28;;;1.17;;
65825;SDS011;52586;-43.152;172.732;2023-03-20T09:16:15;3.55;;;1.20;;
65825;SDS011;52586;-43.152;172.732;2023-03-20T09:18:46;2.03;;;1.02;;
65825;SDS011;52586;-43.152;172.732;2023-03-20T09:21:17;3.35;;;0.95;;
65825;SDS011;52586;-43.152;172.732;2023-03-20T09:23:48;3.20;;;0.93;;
65825;SDS011;52586;-43.152;172.732;2023-03-20T09:26:18;1.77;;;0.82;;
65825;SDS011;52586;-43.152;172.732;2023-03-20T09:28:51;1.20;;;0.90;;
65825;SDS011;52586;-43.152;172.732;2023-03-20T09:31:21;1.80;;;1.02;;
65825;SDS011;52586;-43.152;172.732;2023-03-20T09:33:52;2.63;;;0.90;;
65825;SDS011;52586;-43.152;172.732;2023-03-20T09:36:23;2.30;;;0.90;;
65825;SDS011;52586;-43.152;172.732;2023-03-20T09:38:54;1.85;;;0.80;;
65825;SDS011;52586;-43.152;172.732;2023-03-20T09:41:25;1.95;;;0.88;;
65825;SDS011;52586;-43.152;172.732;2023-03-20T09:44:11;3.05;;;1.30;;
65825;SDS011;52586;-43.152;172.732;2023-03-20T09:46:52;5.03;;;0.98;;
65825;SDS011;52586;-43.152;172.732;2023-03-20T09:49:37;1.67;;;1.13;;
65825;SDS011;52586;-43.152;172.732;2023-03-20T09:52:18;1.70;;;0.98;;
65825;SDS011;52586;-43.152;172.732;2023-03-20T09:54:53;1.65;;;1.00;;
65825;SDS011;52586;-43.152;172.732;2023-03-20T09:57:27;2.28;;;0.95;;
65825;SDS011;52586;-43.152;172.732;2023-03-20T10:00:05;2.05;;;1.00;;
65825;SDS011;52586;-43.152;172.732;2023-03-20T10:02:43;1.15;;;0.70;;
65825;SDS011;52586;-43.152;172.732;2023-03-20T10:05:20;1.75;;;0.80;;
65825;SDS011;52586;-43.152;172.732;2023-03-20T10:07:54;2.50;;;0.80;;
65825;SDS011;52586;-43.152;172.732;2023-03-20T10:10:28;1.42;;;0.82;;
65825;SDS011;52586;-43.152;172.732;2023-03-20T10:13:12;1.10;;;0.77;;
65825;SDS011;52586;-43.152;172.732;2023-03-20T10:16:01;1.30;;;0.90;;
65825;SDS011;52586;-43.152;172.732;2023-03-20T10:18:42;3.22;;;0.98;;
65825;SDS011;52586;-43.152;172.732;2023-03-20T10:21:19;1.23;;;0.80;;
65825;SDS011;52586;-43.152;172.732;2023-03-20T10:23:56;0.93;;;0.75;;
65825;SDS011;52586;-43.152;172.732;2023-03-20T10:26:31;0.80;;;0.70;;
65825;SDS011;52586;-43.152;172.732;2023-03-20T10:29:05;1.15;;;0.70;;
65825;SDS011;52586;-43.152;172.732;2023-03-20T10:31:46;1.08;;;0.60;;
65825;SDS011;52586;-43.152;172.732;2023-03-20T10:34:25;1.77;;;0.60;;
65825;SDS011;52586;-43.152;172.732;2023-03-20T10:37:07;1.63;;;0.70;;
65825;SDS011;52586;-43.152;172.732;2023-03-20T10:39:50;2.67;;;0.82;;
65825;SDS011;52586;-43.152;172.732;2023-03-20T10:42:27;1.40;;;0.80;;
65825;SDS011;52586;-43.152;172.732;2023-03-20T10:45:02;1.17;;;0.90;;
65825;SDS011;52586;-43.152;172.732;2023-03-20T10:47:39;1.00;;;0.77;;
65825;SDS011;52586;-43.152;172.732;2023-03-20T10:50:15;3.75;;;0.90;;
65825;SDS011;52586;-43.152;172.732;2023-03-20T10:52:47;1.60;;;0.80;;
65825;SDS011;52586;-43.152;172.732;2023-03-20T10:55:21;1.70;;;0.88;;
65825;SDS011;52586;-43.152;172.732;2023-03-20T10:57:55;0.98;;;0.73;;
65825;SDS011;52586;-43.152;172.732;2023-03-20T11:00:29;1.45;;;0.80;;
65825;SDS011;52586;-43.152;172.732;2023-03-20T11:03:01;0.93;;;0.85;;
65825;SDS011;52586;-43.152;172.732;2023-03-20T11:05:32;0.82;;;0.70;;
65825;SDS011;52586;-43.152;172.732;2023-03-20T11:08:04;1.65;;;0.90;;
65825;SDS011;52586;-43.152;172.732;2023-03-20T11:10:37;0.95;;;0.80;;
65825;SDS011;52586;-43.152;172.732;2023-03-20T11:13:15;2.75;;;0.80;;
65825;SDS011;52586;-43.152;172.732;2023-03-20T11:15:54;1.45;;;0.73;;
65825;SDS011;52586;-43.152;172.732;2023-03-20T11:18:37;1.40;;;0.80;;
65825;SDS011;52586;-43.152;172.732;2023-03-20T11:21:14;0.80;;;0.60;;
65825;SDS011;52586;-43.152;172.732;2023-03-20T11:23:50;0.80;;;0.60;;
65825;SDS011;52586;-43.152;172.732;2023-03-20T11:26:29;0.85;;;0.60;;
65825;SDS011;52586;-43.152;172.732;2023-03-20T11:29:04;1.20;;;0.75;;
65825;SDS011;52586;-43.152;172.732;2023-03-20T11:31:40;2.30;;;1.10;;
65825;SDS011;52586;-43.152;172.732;2023-03-20T11:34:21;1.48;;;0.68;;
65825;SDS011;52586;-43.152;172.732;2023-03-20T11:36:57;0.68;;;0.60;;
65825;SDS011;52586;-43.152;172.732;2023-03-20T11:39:29;2.65;;;0.70;;
65825;SDS011;52586;-43.152;172.732;2023-03-20T11:42:02;0.80;;;0.47;;
65825;SDS011;52586;-43.152;172.732;2023-03-20T11:44:55;1.15;;;0.70;;
65825;SDS011;52586;-43.152;172.732;2023-03-20T11:47:28;2.03;;;0.80;;
65825;SDS011;52586;-43.152;172.732;2023-03-20T11:50:04;0.70;;;0.50;;
65825;SDS011;52586;-43.152;172.732;2023-03-20T11:52:52;1.33;;;0.60;;
65825;SDS011;52586;-43.152;172.732;2023-03-20T11:55:24;1.55;;;0.63;;
65825;SDS011;52586;-43.152;172.732;2023-03-20T11:57:57;2.38;;;0.50;;
65825;SDS011;52586;-43.152;172.732;2023-03-20T12:00:29;0.90;;;0.70;;
65825;SDS011;52586;-43.152;172.732;2023-03-20T12:03:14;0.90;;;0.60;;
65825;SDS011;52586;-43.152;172.732;2023-03-20T12:06:18;1.58;;;0.60;;
65825;SDS011;52586;-43.152;172.732;2023-03-20T12:08:50;1.05;;;0.70;;
65825;SDS011;52586;-43.152;172.732;2023-03-20T12:14:16;0.80;;;0.50;;
65825;SDS011;52586;-43.152;172.732;2023-03-20T12:17:06;0.80;;;0.52;;
65825;SDS011;52586;-43.152;172.732;2023-03-20T12:19:50;1.38;;;0.70;;
65825;SDS011;52586;-43.152;172.732;2023-03-20T12:22:27;3.97;;;0.60;;
65825;SDS011;52586;-43.152;172.732;2023-03-20T12:25:03;1.25;;;0.60;;
65825;SDS011;52586;-43.152;172.732;2023-03-20T12:27:42;0.82;;;0.60;;
65825;SDS011;52586;-43.152;172.732;2023-03-20T12:30:19;1.17;;;0.70;;
65825;SDS011;52586;-43.152;172.732;2023-03-20T12:32:59;0.75;;;0.50;;
65825;SDS011;52586;-43.152;172.732;2023-03-20T12:35:35;1.13;;;0.50;;
65825;SDS011;52586;-43.152;172.732;2023-03-20T12:38:14;0.77;;;0.50;;
65825;SDS011;52586;-43.152;172.732;2023-03-20T12:40:50;1.75;;;0.60;;
65825;SDS011;52586;-43.152;172.732;2023-03-20T12:43:25;2.03;;;0.65;;
65825;SDS011;52586;-43.152;172.732;2023-03-20T12:46:00;1.35;;;0.60;;
65825;SDS011;52586;-43.152;172.732;2023-03-20T12:48:38;2.70;;;0.70;;
65825;SDS011;52586;-43.152;172.732;2023-03-20T12:51:17;2.03;;;0.55;;
65825;SDS011;52586;-43.152;172.732;2023-03-20T12:54:01;0.93;;;0.40;;
65825;SDS011;52586;-43.152;172.732;2023-03-20T12:56:47;0.75;;;0.60;;
65825;SDS011;52586;-43.152;172.732;2023-03-20T12:59:27;1.23;;;0.45;;
65825;SDS011;52586;-43.152;172.732;2023-03-20T13:02:09;0.43;;;0.43;;
65825;SDS011;52586;-43.152;172.732;2023-03-20T13:05:01;1.42;;;0.60;;
65825;SDS011;52586;-43.152;172.732;2023-03-20T13:07:44;1.10;;;0.50;;
65825;SDS011;52586;-43.152;172.732;2023-03-20T13:10:30;0.70;;;0.45;;
65825;SDS011;52586;-43.152;172.732;2023-03-20T13:13:07;0.57;;;0.40;;
65825;SDS011;52586;-43.152;172.732;2023-03-20T13:15:48;2.08;;;0.50;;
65825;SDS011;52586;-43.152;172.732;2023-03-20T13:18:36;0.52;;;0.30;;
65825;SDS011;52586;-43.152;172.732;2023-03-20T13:21:17;3.08;;;0.70;;
65825;SDS011;52586;-43.152;172.732;2023-03-20T13:23:54;2.15;;;0.50;;
65825;SDS011;52586;-43.152;172.732;2023-03-20T13:26:33;0.57;;;0.43;;
65825;SDS011;52586;-43.152;172.732;2023-03-20T13:29:08;1.73;;;0.68;;
65825;SDS011;52586;-43.152;172.732;2023-03-20T13:31:46;1.02;;;0.55;;
65825;SDS011;52586;-43.152;172.732;2023-03-20T13:34:27;1.08;;;0.50;;
65825;SDS011;52586;-43.152;172.732;2023-03-20T13:37:12;0.82;;;0.65;;
65825;SDS011;52586;-43.152;172.732;2023-03-20T13:39:45;0.52;;;0.32;;
65825;SDS011;52586;-43.152;172.732;2023-03-20T13:42:26;0.85;;;0.40;;
65825;SDS011;52586;-43.152;172.732;2023-03-20T13:45:02;0.70;;;0.43;;
65825;SDS011;52586;-43.152;172.732;2023-03-20T13:47:35;1.55;;;0.70;;
65825;SDS011;52586;-43.152;172.732;2023-03-20T13:50:11;1.77;;;0.50;;
65825;SDS011;52586;-43.152;172.732;2023-03-20T13:52:54;1.75;;;0.73;;
65825;SDS011;52586;-43.152;172.732;2023-03-20T13:55:31;1.10;;;0.43;;
65825;SDS011;52586;-43.152;172.732;2023-03-20T13:58:13;0.65;;;0.40;;
65825;SDS011;52586;-43.152;172.732;2023-03-20T14:01:05;0.88;;;0.47;;
65825;SDS011;52586;-43.152;172.732;2023-03-20T14:03:39;3.03;;;0.70;;
65825;SDS011;52586;-43.152;172.732;2023-03-20T14:06:18;0.75;;;0.45;;
65825;SDS011;52586;-43.152;172.732;2023-03-20T14:09:25;0.75;;;0.68;;
65825;SDS011;52586;-43.152;172.732;2023-03-20T14:12:01;1.48;;;0.43;;
65825;SDS011;52586;-43.152;172.732;2023-03-20T14:14:41;1.00;;;0.50;;
65825;SDS011;52586;-43.152;172.732;2023-03-20T14:17:15;1.65;;;0.50;;
65825;SDS011;52586;-43.152;172.732;2023-03-20T14:19:48;1.17;;;0.40;;
65825;SDS011;52586;-43.152;172.732;2023-03-20T14:22:20;1.60;;;0.40;;
65825;SDS011;52586;-43.152;172.732;2023-03-20T14:24:56;0.88;;;0.40;;
65825;SDS011;52586;-43.152;172.732;2023-03-20T14:27:28;0.65;;;0.38;;
65825;SDS011;52586;-43.152;172.732;2023-03-20T14:36:14;1.25;;;0.57;;
65825;SDS011;52586;-43.152;172.732;2023-03-20T14:38:58;1.17;;;0.30;;
65825;SDS011;52586;-43.152;172.732;2023-03-20T14:41:46;0.98;;;0.50;;
65825;SDS011;52586;-43.152;172.732;2023-03-20T14:44:27;2.05;;;0.70;;
65825;SDS011;52586;-43.152;172.732;2023-03-20T14:47:17;0.70;;;0.40;;
65825;SDS011;52586;-43.152;172.732;2023-03-20T14:49:57;0.65;;;0.30;;
65825;SDS011;52586;-43.152;172.732;2023-03-20T14:52:37;1.48;;;0.45;;
65825;SDS011;52586;-43.152;172.732;2023-03-20T14:55:35;1.25;;;0.52;;
65825;SDS011;52586;-43.152;172.732;2023-03-20T15:01:14;0.88;;;0.40;;
65825;SDS011;52586;-43.152;172.732;2023-03-20T15:03:52;0.90;;;0.38;;
65825;SDS011;52586;-43.152;172.732;2023-03-20T15:06:27;0.68;;;0.47;;
65825;SDS011;52586;-43.152;172.732;2023-03-20T15:08:59;0.68;;;0.43;;
65825;SDS011;52586;-43.152;172.732;2023-03-20T15:11:33;0.82;;;0.55;;